sensor_id;sensor_type;location;lat;lon;timestamp;temperature;humidity
62573;DHT22;48626;51.678;5.806;2023-09-08T00:01:53;19.50;99.90
62573;DHT22;48626;51.678;5.806;2023-09-08T00:04:18;19.40;99.90
62573;DHT22;48626;51.678;5.806;2023-09-08T00:06:46;19.40;99.90
62573;DHT22;48626;51.678;5.806;2023-09-08T00:09:12;19.30;99.90
62573;DHT22;48626;51.678;5.806;2023-09-08T00:11:37;19.30;99.90
62573;DHT22;48626;51.678;5.806;2023-09-08T00:14:03;19.20;99.90
62573;DHT22;48626;51.678;5.806;2023-09-08T00:16:29;19.20;99.90
62573;DHT22;48626;51.678;5.806;2023-09-08T00:18:56;19.20;99.90
62573;DHT22;48626;51.678;5.806;2023-09-08T00:21:22;19.10;99.90
62573;DHT22;48626;51.678;5.806;2023-09-08T00:23:48;19.10;99.90
62573;DHT22;48626;51.678;5.806;2023-09-08T00:26:13;19.10;99.90
62573;DHT22;48626;51.678;5.806;2023-09-08T00:28:39;19.00;99.90
62573;DHT22;48626;51.678;5.806;2023-09-08T00:31:05;19.00;99.90
62573;DHT22;48626;51.678;5.806;2023-09-08T00:33:30;19.00;99.90
62573;DHT22;48626;51.678;5.806;2023-09-08T00:35:58;18.90;99.90
62573;DHT22;48626;51.678;5.806;2023-09-08T00:38:24;18.90;99.90
62573;DHT22;48626;51.678;5.806;2023-09-08T00:40:49;18.80;99.90
62573;DHT22;48626;51.678;5.806;2023-09-08T00:43:17;18.80;99.90
62573;DHT22;48626;51.678;5.806;2023-09-08T00:45:43;18.80;99.90
62573;DHT22;48626;51.678;5.806;2023-09-08T00:48:09;18.80;99.90
62573;DHT22;48626;51.678;5.806;2023-09-08T00:50:36;18.70;99.90
62573;DHT22;48626;51.678;5.806;2023-09-08T00:53:06;18.70;99.90
62573;DHT22;48626;51.678;5.806;2023-09-08T00:55:33;18.70;99.90
62573;DHT22;48626;51.678;5.806;2023-09-08T00:58:00;18.60;99.90
62573;DHT22;48626;51.678;5.806;2023-09-08T01:00:26;18.60;99.90
62573;DHT22;48626;51.678;5.806;2023-09-08T01:02:52;18.60;99.90
62573;DHT22;48626;51.678;5.806;2023-09-08T01:05:18;18.50;99.90
62573;DHT22;48626;51.678;5.806;2023-09-08T01:07:44;18.50;99.90
62573;DHT22;48626;51.678;5.806;2023-09-08T01:10:11;18.50;99.90
62573;DHT22;48626;51.678;5.806;2023-09-08T01:12:37;18.50;99.90
62573;DHT22;48626;51.678;5.806;2023-09-08T01:15:03;18.50;99.90
62573;DHT22;48626;51.678;5.806;2023-09-08T01:17:30;18.40;99.90
62573;DHT22;48626;51.678;5.806;2023-09-08T01:19:59;18.40;99.90
62573;DHT22;48626;51.678;5.806;2023-09-08T01:22:54;18.40;99.90
62573;DHT22;48626;51.678;5.806;2023-09-08T01:25:28;18.40;99.90
62573;DHT22;48626;51.678;5.806;2023-09-08T01:27:56;18.40;99.90
62573;DHT22;48626;51.678;5.806;2023-09-08T01:30:24;18.30;99.90
62573;DHT22;48626;51.678;5.806;2023-09-08T01:32:51;18.30;99.90
62573;DHT22;48626;51.678;5.806;2023-09-08T01:35:17;18.30;99.90
62573;DHT22;48626;51.678;5.806;2023-09-08T01:37:47;18.30;99.90
62573;DHT22;48626;51.678;5.806;2023-09-08T01:40:13;18.30;99.90
62573;DHT22;48626;51.678;5.806;2023-09-08T01:42:39;18.30;99.90
62573;DHT22;48626;51.678;5.806;2023-09-08T01:45:06;18.30;99.90
62573;DHT22;48626;51.678;5.806;2023-09-08T01:47:33;18.30;99.90
62573;DHT22;48626;51.678;5.806;2023-09-08T01:49:58;18.20;99.90
62573;DHT22;48626;51.678;5.806;2023-09-08T01:52:24;18.20;99.90
62573;DHT22;48626;51.678;5.806;2023-09-08T01:54:50;18.20;99.90
62573;DHT22;48626;51.678;5.806;2023-09-08T01:57:16;18.20;99.90
62573;DHT22;48626;51.678;5.806;2023-09-08T01:59:42;18.20;99.90
62573;DHT22;48626;51.678;5.806;2023-09-08T02:02:10;18.10;99.90
62573;DHT22;48626;51.678;5.806;2023-09-08T02:04:35;18.10;99.90
62573;DHT22;48626;51.678;5.806;2023-09-08T02:07:01;18.10;99.90
62573;DHT22;48626;51.678;5.806;2023-09-08T02:09:36;18.00;99.90
62573;DHT22;48626;51.678;5.806;2023-09-08T02:12:03;18.00;99.90
62573;DHT22;48626;51.678;5.806;2023-09-08T02:14:29;18.00;99.90
62573;DHT22;48626;51.678;5.806;2023-09-08T02:16:55;17.90;99.90
62573;DHT22;48626;51.678;5.806;2023-09-08T02:19:21;17.90;99.90
62573;DHT22;48626;51.678;5.806;2023-09-08T02:21:47;17.90;99.90
62573;DHT22;48626;51.678;5.806;2023-09-08T02:24:13;17.90;99.90
62573;DHT22;48626;51.678;5.806;2023-09-08T02:26:39;17.90;99.90
62573;DHT22;48626;51.678;5.806;2023-09-08T02:29:05;17.80;99.90
62573;DHT22;48626;51.678;5.806;2023-09-08T02:31:31;17.80;99.90
62573;DHT22;48626;51.678;5.806;2023-09-08T02:33:57;17.80;99.90
62573;DHT22;48626;51.678;5.806;2023-09-08T02:36:22;17.80;99.90
62573;DHT22;48626;51.678;5.806;2023-09-08T02:38:52;17.80;99.90
62573;DHT22;48626;51.678;5.806;2023-09-08T02:41:17;17.80;99.90
62573;DHT22;48626;51.678;5.806;2023-09-08T02:43:43;17.80;99.90
62573;DHT22;48626;51.678;5.806;2023-09-08T02:46:09;17.70;99.90
62573;DHT22;48626;51.678;5.806;2023-09-08T02:48:35;17.70;99.90
62573;DHT22;48626;51.678;5.806;2023-09-08T02:51:01;17.70;99.90
62573;DHT22;48626;51.678;5.806;2023-09-08T02:53:26;17.70;99.90
62573;DHT22;48626;51.678;5.806;2023-09-08T02:55:55;17.70;99.90
62573;DHT22;48626;51.678;5.806;2023-09-08T02:58:21;17.70;99.90
62573;DHT22;48626;51.678;5.806;2023-09-08T03:00:46;17.60;99.90
62573;DHT22;48626;51.678;5.806;2023-09-08T03:03:12;17.60;99.90
62573;DHT22;48626;51.678;5.806;2023-09-08T03:05:37;17.60;99.90
62573;DHT22;48626;51.678;5.806;2023-09-08T03:08:03;17.60;99.90
62573;DHT22;48626;51.678;5.806;2023-09-08T03:10:30;17.60;99.90
62573;DHT22;48626;51.678;5.806;2023-09-08T03:13:02;17.60;99.90
62573;DHT22;48626;51.678;5.806;2023-09-08T03:15:28;17.50;99.90
62573;DHT22;48626;51.678;5.806;2023-09-08T03:17:57;17.50;99.90
62573;DHT22;48626;51.678;5.806;2023-09-08T03:20:26;17.50;99.90
62573;DHT22;48626;51.678;5.806;2023-09-08T03:22:52;17.40;99.90
62573;DHT22;48626;51.678;5.806;2023-09-08T03:25:18;17.40;99.90
62573;DHT22;48626;51.678;5.806;2023-09-08T03:27:44;17.40;99.90
62573;DHT22;48626;51.678;5.806;2023-09-08T03:30:10;17.40;99.90
62573;DHT22;48626;51.678;5.806;2023-09-08T03:32:36;17.40;99.90
62573;DHT22;48626;51.678;5.806;2023-09-08T03:35:02;17.30;99.90
62573;DHT22;48626;51.678;5.806;2023-09-08T03:37:29;17.30;99.90
62573;DHT22;48626;51.678;5.806;2023-09-08T03:39:55;17.30;99.90
62573;DHT22;48626;51.678;5.806;2023-09-08T03:42:21;17.30;99.90
62573;DHT22;48626;51.678;5.806;2023-09-08T03:44:46;17.30;99.90
62573;DHT22;48626;51.678;5.806;2023-09-08T03:47:12;17.30;99.90
62573;DHT22;48626;51.678;5.806;2023-09-08T03:49:37;17.30;99.90
62573;DHT22;48626;51.678;5.806;2023-09-08T03:52:03;17.20;99.90
62573;DHT22;48626;51.678;5.806;2023-09-08T03:54:29;17.30;99.90
62573;DHT22;48626;51.678;5.806;2023-09-08T03:56:55;17.20;99.90
62573;DHT22;48626;51.678;5.806;2023-09-08T03:59:21;17.20;99.90
62573;DHT22;48626;51.678;5.806;2023-09-08T04:01:46;17.20;99.90
62573;DHT22;48626;51.678;5.806;2023-09-08T04:04:12;17.20;99.90
62573;DHT22;48626;51.678;5.806;2023-09-08T04:06:38;17.20;99.90
62573;DHT22;48626;51.678;5.806;2023-09-08T04:09:03;17.10;99.90
62573;DHT22;48626;51.678;5.806;2023-09-08T04:11:29;17.10;99.90
62573;DHT22;48626;51.678;5.806;2023-09-08T04:13:54;17.10;99.90
62573;DHT22;48626;51.678;5.806;2023-09-08T04:16:20;17.10;99.90
62573;DHT22;48626;51.678;5.806;2023-09-08T04:18:46;17.10;99.90
62573;DHT22;48626;51.678;5.806;2023-09-08T04:21:11;17.10;99.90
62573;DHT22;48626;51.678;5.806;2023-09-08T04:23:37;17.00;99.90
62573;DHT22;48626;51.678;5.806;2023-09-08T04:26:02;17.00;99.90
62573;DHT22;48626;51.678;5.806;2023-09-08T04:28:28;17.00;99.90
62573;DHT22;48626;51.678;5.806;2023-09-08T04:30:54;17.00;99.90
62573;DHT22;48626;51.678;5.806;2023-09-08T04:33:19;17.00;99.90
62573;DHT22;48626;51.678;5.806;2023-09-08T04:35:45;17.00;99.90
62573;DHT22;48626;51.678;5.806;2023-09-08T04:38:11;17.00;99.90
62573;DHT22;48626;51.678;5.806;2023-09-08T04:40:39;17.00;99.90
62573;DHT22;48626;51.678;5.806;2023-09-08T04:43:05;17.00;99.90
62573;DHT22;48626;51.678;5.806;2023-09-08T04:45:31;16.90;99.90
62573;DHT22;48626;51.678;5.806;2023-09-08T04:47:56;17.00;99.90
62573;DHT22;48626;51.678;5.806;2023-09-08T04:50:22;17.00;99.90
62573;DHT22;48626;51.678;5.806;2023-09-08T04:52:48;17.00;99.90
62573;DHT22;48626;51.678;5.806;2023-09-08T04:55:13;17.00;99.90
62573;DHT22;48626;51.678;5.806;2023-09-08T04:57:39;17.00;99.90
62573;DHT22;48626;51.678;5.806;2023-09-08T05:00:05;17.00;99.90
62573;DHT22;48626;51.678;5.806;2023-09-08T05:02:32;17.00;99.90
62573;DHT22;48626;51.678;5.806;2023-09-08T05:04:57;17.00;99.90
62573;DHT22;48626;51.678;5.806;2023-09-08T05:07:23;17.00;99.90
62573;DHT22;48626;51.678;5.806;2023-09-08T05:09:49;17.00;99.90
62573;DHT22;48626;51.678;5.806;2023-09-08T05:12:14;17.00;99.90
62573;DHT22;48626;51.678;5.806;2023-09-08T05:14:40;17.00;99.90
62573;DHT22;48626;51.678;5.806;2023-09-08T05:17:06;17.00;99.90
62573;DHT22;48626;51.678;5.806;2023-09-08T05:19:32;17.00;99.90
62573;DHT22;48626;51.678;5.806;2023-09-08T05:21:58;17.00;99.90
62573;DHT22;48626;51.678;5.806;2023-09-08T05:24:23;17.00;99.90
62573;DHT22;48626;51.678;5.806;2023-09-08T05:26:51;17.00;99.90
62573;DHT22;48626;51.678;5.806;2023-09-08T05:29:16;17.10;99.90
62573;DHT22;48626;51.678;5.806;2023-09-08T05:31:42;17.10;99.90
62573;DHT22;48626;51.678;5.806;2023-09-08T05:34:08;17.10;99.90
62573;DHT22;48626;51.678;5.806;2023-09-08T05:36:34;17.10;99.90
62573;DHT22;48626;51.678;5.806;2023-09-08T05:39:03;17.20;99.90
62573;DHT22;48626;51.678;5.806;2023-09-08T05:41:29;17.20;99.90
62573;DHT22;48626;51.678;5.806;2023-09-08T05:43:54;17.30;99.90
62573;DHT22;48626;51.678;5.806;2023-09-08T05:46:20;17.30;99.90
62573;DHT22;48626;51.678;5.806;2023-09-08T05:48:46;17.40;99.90
62573;DHT22;48626;51.678;5.806;2023-09-08T05:51:13;17.50;99.90
62573;DHT22;48626;51.678;5.806;2023-09-08T05:53:39;17.50;99.90
62573;DHT22;48626;51.678;5.806;2023-09-08T05:56:06;17.60;99.90
62573;DHT22;48626;51.678;5.806;2023-09-08T05:58:32;17.60;99.90
62573;DHT22;48626;51.678;5.806;2023-09-08T06:01:02;17.70;99.90
62573;DHT22;48626;51.678;5.806;2023-09-08T06:03:28;17.70;99.90
62573;DHT22;48626;51.678;5.806;2023-09-08T06:05:53;17.80;99.90
62573;DHT22;48626;51.678;5.806;2023-09-08T06:08:19;17.80;99.90
62573;DHT22;48626;51.678;5.806;2023-09-08T06:10:45;17.90;99.90
62573;DHT22;48626;51.678;5.806;2023-09-08T06:13:10;17.90;99.90
62573;DHT22;48626;51.678;5.806;2023-09-08T06:15:36;18.00;99.90
62573;DHT22;48626;51.678;5.806;2023-09-08T06:18:02;18.00;99.90
62573;DHT22;48626;51.678;5.806;2023-09-08T06:20:28;18.00;99.90
62573;DHT22;48626;51.678;5.806;2023-09-08T06:22:53;18.10;99.90
62573;DHT22;48626;51.678;5.806;2023-09-08T06:25:19;18.20;99.90
62573;DHT22;48626;51.678;5.806;2023-09-08T06:27:44;18.20;99.90
62573;DHT22;48626;51.678;5.806;2023-09-08T06:30:10;18.20;99.90
62573;DHT22;48626;51.678;5.806;2023-09-08T06:32:39;18.30;99.90
62573;DHT22;48626;51.678;5.806;2023-09-08T06:35:04;18.30;99.90
62573;DHT22;48626;51.678;5.806;2023-09-08T06:37:37;18.40;99.90
62573;DHT22;48626;51.678;5.806;2023-09-08T06:40:05;18.40;99.90
62573;DHT22;48626;51.678;5.806;2023-09-08T06:42:31;18.50;99.90
62573;DHT22;48626;51.678;5.806;2023-09-08T06:44:57;18.50;99.90
62573;DHT22;48626;51.678;5.806;2023-09-08T06:47:22;18.60;99.90
62573;DHT22;48626;51.678;5.806;2023-09-08T06:49:48;18.60;99.90
62573;DHT22;48626;51.678;5.806;2023-09-08T06:52:14;18.70;99.90
62573;DHT22;48626;51.678;5.806;2023-09-08T06:54:39;18.70;99.90
62573;DHT22;48626;51.678;5.806;2023-09-08T06:57:05;18.80;99.90
62573;DHT22;48626;51.678;5.806;2023-09-08T06:59:30;18.80;99.90
62573;DHT22;48626;51.678;5.806;2023-09-08T07:01:56;18.90;99.90
62573;DHT22;48626;51.678;5.806;2023-09-08T07:04:22;18.90;99.90
62573;DHT22;48626;51.678;5.806;2023-09-08T07:06:47;19.00;99.90
62573;DHT22;48626;51.678;5.806;2023-09-08T07:09:15;19.10;99.90
62573;DHT22;48626;51.678;5.806;2023-09-08T07:11:41;19.20;99.90
62573;DHT22;48626;51.678;5.806;2023-09-08T07:14:06;19.20;99.90
62573;DHT22;48626;51.678;5.806;2023-09-08T07:16:32;19.40;99.90
62573;DHT22;48626;51.678;5.806;2023-09-08T07:18:57;19.40;99.90
62573;DHT22;48626;51.678;5.806;2023-09-08T07:21:25;19.50;99.90
62573;DHT22;48626;51.678;5.806;2023-09-08T07:23:50;19.70;99.90
62573;DHT22;48626;51.678;5.806;2023-09-08T07:26:17;19.80;99.90
62573;DHT22;48626;51.678;5.806;2023-09-08T07:28:42;19.90;99.90
62573;DHT22;48626;51.678;5.806;2023-09-08T07:31:08;20.00;99.90
62573;DHT22;48626;51.678;5.806;2023-09-08T07:33:34;20.10;99.90
62573;DHT22;48626;51.678;5.806;2023-09-08T07:36:05;20.30;99.90
62573;DHT22;48626;51.678;5.806;2023-09-08T07:38:31;20.40;99.90
62573;DHT22;48626;51.678;5.806;2023-09-08T07:40:57;20.60;99.90
62573;DHT22;48626;51.678;5.806;2023-09-08T07:43:25;20.80;99.90
62573;DHT22;48626;51.678;5.806;2023-09-08T07:45:51;20.90;99.90
62573;DHT22;48626;51.678;5.806;2023-09-08T07:48:16;21.10;99.90
62573;DHT22;48626;51.678;5.806;2023-09-08T07:50:42;21.20;99.90
62573;DHT22;48626;51.678;5.806;2023-09-08T07:53:08;21.40;99.90
62573;DHT22;48626;51.678;5.806;2023-09-08T07:55:33;21.60;99.90
62573;DHT22;48626;51.678;5.806;2023-09-08T07:58:01;21.70;99.90
62573;DHT22;48626;51.678;5.806;2023-09-08T08:00:28;21.80;99.90
62573;DHT22;48626;51.678;5.806;2023-09-08T08:02:55;21.90;99.90
62573;DHT22;48626;51.678;5.806;2023-09-08T08:05:21;22.10;99.90
62573;DHT22;48626;51.678;5.806;2023-09-08T08:07:47;22.20;99.90
62573;DHT22;48626;51.678;5.806;2023-09-08T08:10:13;22.30;99.90
62573;DHT22;48626;51.678;5.806;2023-09-08T08:12:39;22.50;99.90
62573;DHT22;48626;51.678;5.806;2023-09-08T08:15:06;22.60;99.90
62573;DHT22;48626;51.678;5.806;2023-09-08T08:17:32;22.80;99.90
62573;DHT22;48626;51.678;5.806;2023-09-08T08:19:58;22.90;99.90
62573;DHT22;48626;51.678;5.806;2023-09-08T08:22:25;23.00;99.90
62573;DHT22;48626;51.678;5.806;2023-09-08T08:24:51;23.10;99.90
62573;DHT22;48626;51.678;5.806;2023-09-08T08:27:16;23.30;99.90
62573;DHT22;48626;51.678;5.806;2023-09-08T08:29:42;23.30;99.90
62573;DHT22;48626;51.678;5.806;2023-09-08T08:32:07;23.50;99.90
62573;DHT22;48626;51.678;5.806;2023-09-08T08:34:33;23.60;99.90
62573;DHT22;48626;51.678;5.806;2023-09-08T08:36:59;23.80;99.90
62573;DHT22;48626;51.678;5.806;2023-09-08T08:39:24;23.90;99.90
62573;DHT22;48626;51.678;5.806;2023-09-08T08:41:50;24.00;99.90
62573;DHT22;48626;51.678;5.806;2023-09-08T08:44:17;24.10;99.90
62573;DHT22;48626;51.678;5.806;2023-09-08T08:46:45;24.20;99.90
62573;DHT22;48626;51.678;5.806;2023-09-08T08:49:15;24.40;99.90
62573;DHT22;48626;51.678;5.806;2023-09-08T08:51:44;24.50;99.90
62573;DHT22;48626;51.678;5.806;2023-09-08T08:54:14;24.60;99.90
62573;DHT22;48626;51.678;5.806;2023-09-08T08:56:41;24.70;99.90
62573;DHT22;48626;51.678;5.806;2023-09-08T08:59:09;24.90;99.90
62573;DHT22;48626;51.678;5.806;2023-09-08T09:01:35;25.00;99.90
62573;DHT22;48626;51.678;5.806;2023-09-08T09:04:01;25.20;99.90
62573;DHT22;48626;51.678;5.806;2023-09-08T09:06:30;25.30;99.90
62573;DHT22;48626;51.678;5.806;2023-09-08T09:08:56;25.50;99.90
62573;DHT22;48626;51.678;5.806;2023-09-08T09:11:22;25.50;99.90
62573;DHT22;48626;51.678;5.806;2023-09-08T09:13:47;25.70;99.90
62573;DHT22;48626;51.678;5.806;2023-09-08T09:16:13;25.80;99.90
62573;DHT22;48626;51.678;5.806;2023-09-08T09:18:58;25.90;99.90
62573;DHT22;48626;51.678;5.806;2023-09-08T09:21:44;26.10;99.90
62573;DHT22;48626;51.678;5.806;2023-09-08T09:24:34;26.20;99.90
62573;DHT22;48626;51.678;5.806;2023-09-08T09:27:03;26.30;99.90
62573;DHT22;48626;51.678;5.806;2023-09-08T09:29:31;26.40;99.90
62573;DHT22;48626;51.678;5.806;2023-09-08T09:32:07;26.60;99.90
62573;DHT22;48626;51.678;5.806;2023-09-08T09:34:35;26.70;99.90
62573;DHT22;48626;51.678;5.806;2023-09-08T09:37:01;26.80;99.90
62573;DHT22;48626;51.678;5.806;2023-09-08T09:39:30;27.00;99.90
62573;DHT22;48626;51.678;5.806;2023-09-08T09:41:57;27.10;99.90
62573;DHT22;48626;51.678;5.806;2023-09-08T09:44:24;27.20;99.90
62573;DHT22;48626;51.678;5.806;2023-09-08T09:46:52;27.40;99.90
62573;DHT22;48626;51.678;5.806;2023-09-08T09:49:18;27.50;99.90
62573;DHT22;48626;51.678;5.806;2023-09-08T09:51:48;27.60;99.90
62573;DHT22;48626;51.678;5.806;2023-09-08T09:54:15;27.80;99.90
62573;DHT22;48626;51.678;5.806;2023-09-08T09:56:41;27.90;99.90
62573;DHT22;48626;51.678;5.806;2023-09-08T09:59:12;28.10;99.90
62573;DHT22;48626;51.678;5.806;2023-09-08T10:01:41;28.40;99.90
62573;DHT22;48626;51.678;5.806;2023-09-08T10:04:07;28.60;99.90
62573;DHT22;48626;51.678;5.806;2023-09-08T10:06:35;28.90;99.90
62573;DHT22;48626;51.678;5.806;2023-09-08T10:09:04;29.00;99.90
62573;DHT22;48626;51.678;5.806;2023-09-08T10:11:50;29.30;99.90
62573;DHT22;48626;51.678;5.806;2023-09-08T10:14:18;29.60;99.90
62573;DHT22;48626;51.678;5.806;2023-09-08T10:16:46;29.90;99.90
62573;DHT22;48626;51.678;5.806;2023-09-08T10:19:15;30.20;99.90
62573;DHT22;48626;51.678;5.806;2023-09-08T10:21:45;30.40;99.90
62573;DHT22;48626;51.678;5.806;2023-09-08T10:24:24;30.60;99.90
62573;DHT22;48626;51.678;5.806;2023-09-08T10:26:56;31.00;99.90
62573;DHT22;48626;51.678;5.806;2023-09-08T10:29:25;31.30;99.90
62573;DHT22;48626;51.678;5.806;2023-09-08T10:31:53;31.60;99.90
62573;DHT22;48626;51.678;5.806;2023-09-08T10:34:19;31.80;99.90
62573;DHT22;48626;51.678;5.806;2023-09-08T10:36:45;32.00;99.90
62573;DHT22;48626;51.678;5.806;2023-09-08T10:39:32;32.20;99.90
62573;DHT22;48626;51.678;5.806;2023-09-08T10:47:24;33.10;99.90
62573;DHT22;48626;51.678;5.806;2023-09-08T10:49:53;33.30;99.90
62573;DHT22;48626;51.678;5.806;2023-09-08T10:52:26;33.70;99.90
62573;DHT22;48626;51.678;5.806;2023-09-08T10:54:55;33.70;99.90
62573;DHT22;48626;51.678;5.806;2023-09-08T10:57:28;33.90;99.90
62573;DHT22;48626;51.678;5.806;2023-09-08T11:00:02;34.10;99.90
62573;DHT22;48626;51.678;5.806;2023-09-08T11:02:50;34.30;99.90
62573;DHT22;48626;51.678;5.806;2023-09-08T11:05:21;34.60;99.90
62573;DHT22;48626;51.678;5.806;2023-09-08T11:07:49;34.70;99.90
62573;DHT22;48626;51.678;5.806;2023-09-08T11:10:15;34.90;99.90
62573;DHT22;48626;51.678;5.806;2023-09-08T11:12:41;35.10;99.90
62573;DHT22;48626;51.678;5.806;2023-09-08T11:15:08;35.40;99.90
62573;DHT22;48626;51.678;5.806;2023-09-08T11:17:37;35.50;99.90
62573;DHT22;48626;51.678;5.806;2023-09-08T11:20:08;35.80;99.90
62573;DHT22;48626;51.678;5.806;2023-09-08T11:22:35;36.00;99.90
62573;DHT22;48626;51.678;5.806;2023-09-08T11:25:02;36.20;99.90
62573;DHT22;48626;51.678;5.806;2023-09-08T11:27:30;36.30;99.90
62573;DHT22;48626;51.678;5.806;2023-09-08T11:29:56;36.40;99.90
62573;DHT22;48626;51.678;5.806;2023-09-08T11:32:31;36.60;99.90
62573;DHT22;48626;51.678;5.806;2023-09-08T11:35:04;36.90;99.90
62573;DHT22;48626;51.678;5.806;2023-09-08T11:37:37;37.00;99.90
62573;DHT22;48626;51.678;5.806;2023-09-08T11:40:05;37.30;99.90
62573;DHT22;48626;51.678;5.806;2023-09-08T11:42:34;37.40;99.90
62573;DHT22;48626;51.678;5.806;2023-09-08T11:45:00;37.70;99.90
62573;DHT22;48626;51.678;5.806;2023-09-08T11:47:29;37.90;99.90
62573;DHT22;48626;51.678;5.806;2023-09-08T11:49:55;37.80;99.90
62573;DHT22;48626;51.678;5.806;2023-09-08T11:52:23;38.10;99.90
62573;DHT22;48626;51.678;5.806;2023-09-08T11:54:50;38.30;99.90
62573;DHT22;48626;51.678;5.806;2023-09-08T11:57:16;38.50;99.90
62573;DHT22;48626;51.678;5.806;2023-09-08T11:59:43;38.70;99.90
62573;DHT22;48626;51.678;5.806;2023-09-08T12:02:11;39.10;99.90
62573;DHT22;48626;51.678;5.806;2023-09-08T12:04:37;39.20;99.90
62573;DHT22;48626;51.678;5.806;2023-09-08T12:07:04;39.20;99.90
62573;DHT22;48626;51.678;5.806;2023-09-08T12:09:30;39.30;99.90
62573;DHT22;48626;51.678;5.806;2023-09-08T12:11:55;39.40;99.90
62573;DHT22;48626;51.678;5.806;2023-09-08T12:14:21;39.80;99.90
62573;DHT22;48626;51.678;5.806;2023-09-08T12:16:47;39.80;99.90
62573;DHT22;48626;51.678;5.806;2023-09-08T12:19:29;40.00;99.90
62573;DHT22;48626;51.678;5.806;2023-09-08T12:21:59;40.30;99.90
62573;DHT22;48626;51.678;5.806;2023-09-08T12:24:47;40.50;99.90
62573;DHT22;48626;51.678;5.806;2023-09-08T12:27:17;40.70;99.90
62573;DHT22;48626;51.678;5.806;2023-09-08T12:29:59;40.40;99.90
62573;DHT22;48626;51.678;5.806;2023-09-08T12:32:28;40.50;99.90
62573;DHT22;48626;51.678;5.806;2023-09-08T12:34:55;40.70;99.90
62573;DHT22;48626;51.678;5.806;2023-09-08T12:37:24;40.80;99.90
62573;DHT22;48626;51.678;5.806;2023-09-08T12:39:53;41.00;99.90
62573;DHT22;48626;51.678;5.806;2023-09-08T12:42:19;41.10;99.90
62573;DHT22;48626;51.678;5.806;2023-09-08T12:44:45;41.00;99.90
62573;DHT22;48626;51.678;5.806;2023-09-08T12:47:11;41.00;99.90
62573;DHT22;48626;51.678;5.806;2023-09-08T12:49:39;41.20;99.90
62573;DHT22;48626;51.678;5.806;2023-09-08T12:52:05;41.50;99.90
62573;DHT22;48626;51.678;5.806;2023-09-08T12:54:32;41.70;99.90
62573;DHT22;48626;51.678;5.806;2023-09-08T12:56:57;41.70;99.90
62573;DHT22;48626;51.678;5.806;2023-09-08T12:59:23;42.00;99.90
62573;DHT22;48626;51.678;5.806;2023-09-08T13:01:48;42.20;99.90
62573;DHT22;48626;51.678;5.806;2023-09-08T13:04:14;42.40;99.90
62573;DHT22;48626;51.678;5.806;2023-09-08T13:06:40;42.40;99.90
62573;DHT22;48626;51.678;5.806;2023-09-08T13:09:06;42.40;99.90
62573;DHT22;48626;51.678;5.806;2023-09-08T13:11:32;42.20;99.90
62573;DHT22;48626;51.678;5.806;2023-09-08T13:13:58;41.70;99.90
62573;DHT22;48626;51.678;5.806;2023-09-08T13:16:24;41.00;99.90
62573;DHT22;48626;51.678;5.806;2023-09-08T13:18:49;40.40;99.90
62573;DHT22;48626;51.678;5.806;2023-09-08T13:21:15;40.20;99.90
62573;DHT22;48626;51.678;5.806;2023-09-08T13:23:41;40.10;99.90
62573;DHT22;48626;51.678;5.806;2023-09-08T13:26:06;39.90;99.90
62573;DHT22;48626;51.678;5.806;2023-09-08T13:28:32;39.50;99.90
62573;DHT22;48626;51.678;5.806;2023-09-08T13:30:57;38.80;99.90
62573;DHT22;48626;51.678;5.806;2023-09-08T13:33:23;38.20;99.90
62573;DHT22;48626;51.678;5.806;2023-09-08T13:35:49;37.90;99.90
62573;DHT22;48626;51.678;5.806;2023-09-08T13:38:14;37.40;99.90
62573;DHT22;48626;51.678;5.806;2023-09-08T13:40:40;36.80;99.90
62573;DHT22;48626;51.678;5.806;2023-09-08T13:43:06;36.40;99.90
62573;DHT22;48626;51.678;5.806;2023-09-08T13:45:32;36.10;99.90
62573;DHT22;48626;51.678;5.806;2023-09-08T13:47:58;35.70;99.90
62573;DHT22;48626;51.678;5.806;2023-09-08T13:50:24;35.60;99.90
62573;DHT22;48626;51.678;5.806;2023-09-08T13:52:49;35.40;99.90
62573;DHT22;48626;51.678;5.806;2023-09-08T13:55:15;35.60;99.90
62573;DHT22;48626;51.678;5.806;2023-09-08T13:57:41;35.60;99.90
62573;DHT22;48626;51.678;5.806;2023-09-08T14:00:07;35.30;99.90
62573;DHT22;48626;51.678;5.806;2023-09-08T14:02:34;34.90;99.90
62573;DHT22;48626;51.678;5.806;2023-09-08T14:05:00;34.60;99.90
62573;DHT22;48626;51.678;5.806;2023-09-08T14:07:25;34.30;99.90
62573;DHT22;48626;51.678;5.806;2023-09-08T14:09:51;34.10;99.90
62573;DHT22;48626;51.678;5.806;2023-09-08T14:12:17;34.20;99.90
62573;DHT22;48626;51.678;5.806;2023-09-08T14:14:42;34.50;99.90
62573;DHT22;48626;51.678;5.806;2023-09-08T14:17:08;34.90;99.90
62573;DHT22;48626;51.678;5.806;2023-09-08T14:19:33;34.70;99.90
62573;DHT22;48626;51.678;5.806;2023-09-08T14:21:59;34.40;99.90
62573;DHT22;48626;51.678;5.806;2023-09-08T14:24:25;34.10;99.90
62573;DHT22;48626;51.678;5.806;2023-09-08T14:26:51;33.80;99.90
62573;DHT22;48626;51.678;5.806;2023-09-08T14:29:17;33.60;99.90
62573;DHT22;48626;51.678;5.806;2023-09-08T14:31:43;33.50;99.90
62573;DHT22;48626;51.678;5.806;2023-09-08T14:34:09;33.40;99.90
62573;DHT22;48626;51.678;5.806;2023-09-08T14:36:34;33.30;99.90
62573;DHT22;48626;51.678;5.806;2023-09-08T14:39:00;33.20;99.90
62573;DHT22;48626;51.678;5.806;2023-09-08T14:41:26;33.10;99.90
62573;DHT22;48626;51.678;5.806;2023-09-08T14:43:51;33.00;99.90
62573;DHT22;48626;51.678;5.806;2023-09-08T14:46:17;32.90;99.90
62573;DHT22;48626;51.678;5.806;2023-09-08T14:48:43;32.80;99.90
62573;DHT22;48626;51.678;5.806;2023-09-08T14:51:08;32.70;99.90
62573;DHT22;48626;51.678;5.806;2023-09-08T14:53:34;32.70;99.90
62573;DHT22;48626;51.678;5.806;2023-09-08T14:56:00;32.60;99.90
62573;DHT22;48626;51.678;5.806;2023-09-08T14:58:26;32.60;99.90
62573;DHT22;48626;51.678;5.806;2023-09-08T15:00:57;32.70;99.90
62573;DHT22;48626;51.678;5.806;2023-09-08T15:03:25;32.70;99.90
62573;DHT22;48626;51.678;5.806;2023-09-08T15:05:50;32.60;99.90
62573;DHT22;48626;51.678;5.806;2023-09-08T15:08:16;32.50;99.90
62573;DHT22;48626;51.678;5.806;2023-09-08T15:10:42;32.40;99.90
62573;DHT22;48626;51.678;5.806;2023-09-08T15:13:07;32.30;99.90
62573;DHT22;48626;51.678;5.806;2023-09-08T15:15:33;32.30;99.90
62573;DHT22;48626;51.678;5.806;2023-09-08T15:17:58;32.10;99.90
62573;DHT22;48626;51.678;5.806;2023-09-08T15:20:24;32.10;99.90
62573;DHT22;48626;51.678;5.806;2023-09-08T15:22:50;32.10;99.90
62573;DHT22;48626;51.678;5.806;2023-09-08T15:25:16;32.00;99.90
62573;DHT22;48626;51.678;5.806;2023-09-08T15:27:42;31.90;99.90
62573;DHT22;48626;51.678;5.806;2023-09-08T15:30:08;31.80;99.90
62573;DHT22;48626;51.678;5.806;2023-09-08T15:32:34;31.80;99.90
62573;DHT22;48626;51.678;5.806;2023-09-08T15:35:00;31.60;99.90